Time;durP1;ratioP1;P1;durP2;ratioP2;P2;SDS_P1;SDS_P2;PMS_P1;PMS_P2;Temp;Humidity;BMP_temperature;BMP_pressure;BME280_temperature;BME280_humidity;BME280_pressure;Samples;Min_cycle;Max_cycle;Signal;HPM_P1;HPM_P2
2021/07/05 00:00:45;;;;;;;14.00;12.83;;;21.20;1.00;;;;;;5045222;28;20462;-76
2021/07/05 00:03:12;;;;;;;12.20;11.20;;;21.20;1.00;;;;;;5045336;28;21016;-77
2021/07/05 00:05:39;;;;;;;10.80;9.93;;;21.20;1.00;;;;;;5042095;28;20442;-77
2021/07/05 00:08:07;;;;;;;11.50;10.30;;;21.10;1.00;;;;;;5040383;28;21017;-78
2021/07/05 00:10:34;;;;;;;11.87;10.87;;;21.00;1.00;;;;;;5051252;28;20980;-77
2021/07/05 00:13:01;;;;;;;11.17;10.27;;;21.00;1.00;;;;;;5041814;28;20441;-75
2021/07/05 00:15:31;;;;;;;11.57;10.80;;;21.00;1.00;;;;;;5045947;28;20466;-75
2021/07/05 00:18:00;;;;;;;10.90;10.10;;;21.00;1.00;;;;;;5038481;28;20541;-75
2021/07/05 00:20:28;;;;;;;12.10;11.20;;;20.90;1.00;;;;;;5046419;28;20455;-75
2021/07/05 00:22:55;;;;;;;13.07;12.17;;;20.80;1.00;;;;;;5041335;28;20457;-75
2021/07/05 00:25:24;;;;;;;11.93;11.13;;;20.80;1.00;;;;;;5040494;28;20443;-75
2021/07/05 00:27:51;;;;;;;12.83;11.83;;;20.70;1.00;;;;;;5040752;28;20451;-76
2021/07/05 00:30:18;;;;;;;12.33;11.43;;;20.70;1.00;;;;;;5045560;28;21238;-77
2021/07/05 00:32:46;;;;;;;12.93;11.90;;;20.70;1.00;;;;;;5049329;28;20456;-77
2021/07/05 00:35:13;;;;;;;12.30;11.40;;;20.60;1.00;;;;;;5039882;28;20450;-77
2021/07/05 00:37:40;;;;;;;12.83;11.83;;;20.60;1.00;;;;;;5041975;28;20552;-78
2021/07/05 00:40:09;;;;;;;12.70;11.53;;;20.60;1.00;;;;;;5045312;28;21429;-78
2021/07/05 00:42:37;;;;;;;13.53;12.53;;;20.60;1.00;;;;;;5046846;28;21259;-77
2021/07/05 00:45:06;;;;;;;13.90;12.80;;;20.50;1.00;;;;;;5042272;28;20480;-77
2021/07/05 00:47:33;;;;;;;13.73;12.70;;;20.50;1.00;;;;;;5053525;28;20484;-78
2021/07/05 00:50:00;;;;;;;13.30;12.30;;;20.50;1.00;;;;;;5041923;28;21012;-77
2021/07/05 00:52:28;;;;;;;14.63;13.40;;;20.50;1.00;;;;;;5054943;28;21070;-77
2021/07/05 00:54:54;;;;;;;13.03;12.13;;;20.50;1.00;;;;;;5043285;28;20432;-76
2021/07/05 00:57:23;;;;;;;13.97;12.73;;;20.50;1.00;;;;;;5044685;28;20548;-76
2021/07/05 00:59:57;;;;;;;13.13;12.20;;;20.40;1.00;;;;;;5043067;28;20453;-77
2021/07/05 01:02:25;;;;;;;13.80;12.70;;;20.40;1.00;;;;;;5038420;28;20485;-77
2021/07/05 01:04:54;;;;;;;15.00;13.90;;;20.30;1.00;;;;;;5053227;28;20425;-77
2021/07/05 01:07:22;;;;;;;14.77;13.73;;;20.30;1.00;;;;;;5044441;28;20444;-77
2021/07/05 01:09:49;;;;;;;13.70;12.50;;;20.20;1.00;;;;;;5042206;28;20469;-77
2021/07/05 01:12:17;;;;;;;15.37;13.97;;;20.20;1.00;;;;;;5045905;28;21132;-77
2021/07/05 01:14:43;;;;;;;15.00;13.80;;;20.20;1.00;;;;;;5048886;28;20471;-77
2021/07/05 01:17:13;;;;;;;15.30;14.10;;;20.20;1.00;;;;;;5048245;28;20452;-76
2021/07/05 01:19:41;;;;;;;14.17;13.00;;;20.20;1.00;;;;;;5051596;28;20468;-77
2021/07/05 01:22:09;;;;;;;16.70;15.30;;;20.20;1.00;;;;;;5046253;28;20465;-77
2021/07/05 01:24:37;;;;;;;15.00;13.80;;;20.20;1.00;;;;;;5053139;28;20482;-77
2021/07/05 01:27:04;;;;;;;14.40;13.23;;;20.10;1.00;;;;;;5052703;28;20413;-76
2021/07/05 01:29:31;;;;;;;15.20;14.00;;;20.10;1.00;;;;;;5050588;28;20467;-75
2021/07/05 01:31:58;;;;;;;15.10;13.90;;;20.00;1.00;;;;;;5058153;28;20464;-76
2021/07/05 01:34:25;;;;;;;15.30;14.20;;;19.90;1.00;;;;;;5045322;28;20503;-76
2021/07/05 01:36:51;;;;;;;15.30;14.20;;;19.90;1.00;;;;;;5049296;28;21142;-76
2021/07/05 01:39:21;;;;;;;14.97;13.77;;;19.90;1.00;;;;;;5046553;28;20453;-76
2021/07/05 01:41:48;;;;;;;15.63;14.53;;;19.90;1.00;;;;;;5048250;28;20528;-75
2021/07/05 01:44:15;;;;;;;14.70;13.67;;;19.80;1.00;;;;;;5046400;28;20979;-77
2021/07/05 01:46:42;;;;;;;15.40;14.10;;;19.80;1.00;;;;;;5040456;28;21217;-76
2021/07/05 01:49:09;;;;;;;16.37;15.17;;;19.80;1.00;;;;;;5048524;28;20588;-76
2021/07/05 01:51:36;;;;;;;15.43;14.33;;;19.70;1.00;;;;;;5048484;28;20437;-77
2021/07/05 01:54:03;;;;;;;16.23;14.83;;;19.70;1.00;;;;;;5043008;28;20944;-77
2021/07/05 01:56:31;;;;;;;16.50;15.10;;;19.70;1.00;;;;;;5042289;28;20462;-76
2021/07/05 01:58:59;;;;;;;17.80;16.50;;;19.60;1.00;;;;;;5045414;28;21240;-76
2021/07/05 02:01:25;;;;;;;18.83;17.23;;;19.50;1.00;;;;;;5044023;28;20491;-75
2021/07/05 02:03:52;;;;;;;17.03;15.63;;;19.50;1.00;;;;;;5051177;28;20556;-76
2021/07/05 02:06:19;;;;;;;18.13;16.70;;;19.50;1.00;;;;;;5041217;28;20571;-75
2021/07/05 02:08:46;;;;;;;17.73;16.40;;;19.40;1.00;;;;;;5047265;28;20452;-76
2021/07/05 02:11:12;;;;;;;17.47;16.17;;;19.40;1.00;;;;;;5046453;28;20441;-76
2021/07/05 02:13:40;;;;;;;16.23;14.97;;;19.30;1.00;;;;;;5043222;28;20445;-77
2021/07/05 02:16:07;;;;;;;19.13;17.73;;;19.30;1.00;;;;;;5038730;28;20556;-76
2021/07/05 02:18:34;;;;;;;18.13;16.77;;;19.30;1.00;;;;;;5042365;28;20889;-76
2021/07/05 02:21:05;;;;;;;17.17;15.97;;;19.20;1.00;;;;;;5050839;28;20440;-75
2021/07/05 02:23:32;;;;;;;17.40;16.20;;;19.20;1.00;;;;;;5043761;28;20481;-77
2021/07/05 02:26:00;;;;;;;19.00;17.40;;;19.10;1.00;;;;;;5045874;28;20490;-78
2021/07/05 02:28:29;;;;;;;18.20;16.80;;;19.10;1.00;;;;;;5041710;28;20462;-75
2021/07/05 02:30:58;;;;;;;19.10;17.70;;;19.10;1.00;;;;;;5045962;28;21468;-76
2021/07/05 02:33:27;;;;;;;19.17;17.67;;;19.10;1.00;;;;;;5042479;28;20484;-76
2021/07/05 02:35:55;;;;;;;18.80;17.20;;;19.10;1.00;;;;;;5047279;28;20499;-75
2021/07/05 02:38:23;;;;;;;19.77;18.30;;;19.10;1.00;;;;;;5049355;28;21089;-75
2021/07/05 02:40:51;;;;;;;19.67;18.07;;;19.00;1.00;;;;;;5041580;28;20798;-76
2021/07/05 02:43:20;;;;;;;20.07;18.17;;;19.00;1.00;;;;;;5056283;28;20495;-76
2021/07/05 02:45:49;;;;;;;18.80;17.30;;;18.90;1.00;;;;;;5041037;28;20464;-76
2021/07/05 02:48:19;;;;;;;19.00;17.47;;;18.90;1.00;;;;;;5042124;28;20492;-77
2021/07/05 02:50:49;;;;;;;20.37;18.70;;;18.90;1.00;;;;;;5042021;28;20460;-77
2021/07/05 02:53:16;;;;;;;20.10;18.30;;;18.90;1.00;;;;;;5044166;28;20468;-76
2021/07/05 02:55:43;;;;;;;19.87;18.27;;;18.90;1.00;;;;;;5045605;28;20461;-76
2021/07/05 02:58:10;;;;;;;20.03;18.43;;;18.90;1.00;;;;;;5041418;28;20483;-75
2021/07/05 03:00:40;;;;;;;21.60;19.90;;;18.90;1.00;;;;;;5052684;28;20919;-77
2021/07/05 03:03:07;;;;;;;21.23;19.43;;;18.90;1.00;;;;;;5045878;28;20500;-77
2021/07/05 03:05:35;;;;;;;19.13;17.63;;;18.90;1.00;;;;;;5071170;28;20965;-76
2021/07/05 03:08:02;;;;;;;20.40;18.80;;;18.90;1.00;;;;;;5063960;28;20529;-76
2021/07/05 03:10:33;;;;;;;20.50;18.90;;;18.80;1.00;;;;;;5054395;28;20935;-77
2021/07/05 03:13:00;;;;;;;22.73;20.87;;;18.80;1.00;;;;;;5061116;28;20488;-76
2021/07/05 03:15:26;;;;;;;21.63;20.03;;;18.80;1.00;;;;;;5060249;28;21889;-76
2021/07/05 03:17:53;;;;;;;22.30;20.40;;;18.80;1.00;;;;;;5063915;28;20614;-77
2021/07/05 03:20:22;;;;;;;20.73;19.23;;;18.80;1.00;;;;;;5062964;28;20536;-77
2021/07/05 03:22:51;;;;;;;21.03;19.43;;;18.90;1.00;;;;;;5059395;28;21063;-79
2021/07/05 03:25:20;;;;;;;21.83;20.10;;;18.70;1.00;;;;;;5054626;28;20569;-77
2021/07/05 03:27:47;;;;;;;22.07;20.27;;;18.80;1.00;;;;;;5049944;28;20460;-77
2021/07/05 03:30:17;;;;;;;22.63;20.63;;;18.80;1.00;;;;;;5042227;28;20448;-77
2021/07/05 03:32:44;;;;;;;21.30;19.70;;;18.80;1.00;;;;;;5044224;28;20444;-77
2021/07/05 03:35:12;;;;;;;21.63;19.97;;;18.80;1.00;;;;;;5046807;28;20969;-75
2021/07/05 03:37:39;;;;;;;22.47;20.63;;;18.80;1.00;;;;;;5045010;28;20477;-75
2021/07/05 03:40:12;;;;;;;22.23;20.33;;;18.80;1.00;;;;;;5045265;28;20444;-76
2021/07/05 03:42:38;;;;;;;22.13;20.13;;;18.90;1.00;;;;;;5043786;28;21336;-76
2021/07/05 03:45:07;;;;;;;22.80;20.70;;;18.90;1.00;;;;;;5050435;28;20454;-76
2021/07/05 03:47:34;;;;;;;24.50;22.17;;;18.80;1.00;;;;;;5045115;28;20468;-76
2021/07/05 03:50:00;;;;;;;23.17;21.40;;;18.90;1.00;;;;;;5045512;28;20453;-76
2021/07/05 03:52:27;;;;;;;21.00;19.30;;;18.90;1.00;;;;;;5041747;28;20533;-75
2021/07/05 03:54:54;;;;;;;21.77;19.97;;;18.90;1.00;;;;;;5051348;28;20455;-77
2021/07/05 03:57:26;;;;;;;22.70;20.83;;;18.90;1.00;;;;;;5042625;28;20456;-76
2021/07/05 03:59:53;;;;;;;23.07;21.23;;;18.90;1.00;;;;;;5051210;28;20452;-76
2021/07/05 04:02:21;;;;;;;21.10;19.50;;;19.00;1.00;;;;;;5039953;28;20543;-77
2021/07/05 04:04:49;;;;;;;22.23;20.17;;;19.00;1.00;;;;;;5042978;28;20488;-76
2021/07/05 04:07:16;;;;;;;22.87;20.93;;;19.00;1.00;;;;;;5045305;28;20455;-77
2021/07/05 04:09:43;;;;;;;22.50;20.50;;;19.00;1.00;;;;;;5043138;28;20449;-76
2021/07/05 04:12:12;;;;;;;21.30;19.60;;;19.10;1.00;;;;;;5057171;28;20455;-76
2021/07/05 04:14:41;;;;;;;21.60;19.90;;;19.10;1.00;;;;;;5044900;28;20464;-77
2021/07/05 04:17:08;;;;;;;22.40;20.60;;;19.20;1.00;;;;;;5050369;28;21000;-77
2021/07/05 04:19:35;;;;;;;22.13;20.10;;;19.20;1.00;;;;;;5048397;28;20437;-76
2021/07/05 04:22:01;;;;;;;22.10;20.30;;;19.30;1.00;;;;;;5043210;28;20463;-76
2021/07/05 04:24:28;;;;;;;20.77;19.07;;;19.30;1.00;;;;;;5047341;28;20491;-76
2021/07/05 04:26:55;;;;;;;21.77;20.07;;;19.30;1.00;;;;;;5051293;28;20446;-77
2021/07/05 04:29:22;;;;;;;21.67;19.87;;;19.40;1.00;;;;;;5046798;28;20447;-76
2021/07/05 04:31:50;;;;;;;20.27;18.77;;;19.40;1.00;;;;;;5047122;28;20444;-77
2021/07/05 04:34:17;;;;;;;21.43;19.80;;;19.40;1.00;;;;;;5045587;28;20468;-78
2021/07/05 04:36:44;;;;;;;20.57;18.73;;;19.40;1.00;;;;;;5049742;28;20448;-77
2021/07/05 04:39:10;;;;;;;20.97;19.30;;;19.40;1.00;;;;;;5048083;28;20754;-75
2021/07/05 04:41:38;;;;;;;18.87;17.30;;;19.40;1.00;;;;;;5051434;28;21308;-76
2021/07/05 04:44:05;;;;;;;20.73;18.97;;;19.40;1.00;;;;;;5047837;28;20430;-76
2021/07/05 04:46:32;;;;;;;21.23;19.67;;;19.40;1.00;;;;;;5049305;28;20448;-76
2021/07/05 04:49:00;;;;;;;21.03;19.27;;;19.50;1.00;;;;;;5053363;28;20544;-77
2021/07/05 04:51:26;;;;;;;21.90;20.00;;;19.50;1.00;;;;;;5046218;28;20484;-77
2021/07/05 04:53:53;;;;;;;22.30;20.53;;;19.60;1.00;;;;;;5051925;28;20451;-76
2021/07/05 04:56:20;;;;;;;21.30;19.70;;;19.60;1.00;;;;;;5044189;28;20449;-77
2021/07/05 04:58:47;;;;;;;21.00;19.40;;;19.60;1.00;;;;;;5048524;28;20458;-76
2021/07/05 05:01:15;;;;;;;21.23;19.53;;;19.60;1.00;;;;;;5044172;28;20432;-76
2021/07/05 05:03:42;;;;;;;21.37;19.77;;;19.70;1.00;;;;;;5047920;28;20449;-76
2021/07/05 05:06:10;;;;;;;22.87;20.90;;;19.80;1.00;;;;;;5044077;28;20478;-77
2021/07/05 05:08:36;;;;;;;22.40;20.60;;;19.80;1.00;;;;;;5053326;28;20468;-77
2021/07/05 05:11:03;;;;;;;21.87;19.87;;;19.90;1.00;;;;;;5043790;28;20450;-77
2021/07/05 05:13:30;;;;;;;23.47;20.97;;;19.90;1.00;;;;;;5038510;28;20539;-77
2021/07/05 05:15:57;;;;;;;20.93;19.20;;;20.00;1.00;;;;;;5042736;28;20460;-76
2021/07/05 05:18:23;;;;;;;20.90;19.10;;;20.20;1.00;;;;;;5049038;28;20564;-76
2021/07/05 05:20:50;;;;;;;21.57;19.77;;;20.40;1.00;;;;;;5044302;28;20484;-77
2021/07/05 05:23:18;;;;;;;19.80;18.10;;;20.50;1.00;;;;;;5044044;28;20455;-78
2021/07/05 05:25:45;;;;;;;19.57;18.03;;;20.70;1.00;;;;;;5049360;28;20507;-76
2021/07/05 05:28:12;;;;;;;20.30;18.70;;;20.90;1.00;;;;;;5043596;28;20441;-77
2021/07/05 05:30:39;;;;;;;19.23;17.53;;;21.00;1.00;;;;;;5050986;28;20446;-76
2021/07/05 05:33:06;;;;;;;20.77;18.97;;;21.00;1.00;;;;;;5041880;28;20452;-75
2021/07/05 05:35:33;;;;;;;21.07;19.47;;;21.10;1.00;;;;;;5056096;28;20469;-77
2021/07/05 05:38:01;;;;;;;23.30;21.20;;;21.20;1.00;;;;;;5045771;28;20438;-77
2021/07/05 05:40:30;;;;;;;21.03;19.03;;;21.30;1.00;;;;;;5047436;28;20431;-77
2021/07/05 05:42:57;;;;;;;19.97;18.47;;;21.30;1.00;;;;;;5044497;28;20451;-76
2021/07/05 05:45:24;;;;;;;20.77;19.20;;;21.40;1.00;;;;;;5047886;28;20470;-77
2021/07/05 05:47:50;;;;;;;19.77;18.30;;;21.40;1.00;;;;;;5045591;28;20429;-76
2021/07/05 05:50:18;;;;;;;21.00;19.20;;;21.50;1.00;;;;;;5047996;28;21059;-75
2021/07/05 05:52:45;;;;;;;20.90;19.30;;;21.60;1.00;;;;;;5046560;28;20504;-76
2021/07/05 05:55:13;;;;;;;21.17;19.30;;;21.60;1.00;;;;;;5043776;28;20455;-76
2021/07/05 05:57:41;;;;;;;19.50;17.80;;;21.70;1.00;;;;;;5042094;28;20455;-77
2021/07/05 06:00:14;;;;;;;19.30;17.70;;;21.70;1.00;;;;;;5046744;28;20472;-77
2021/07/05 06:02:40;;;;;;;17.20;15.80;;;21.70;1.00;;;;;;5046371;28;20455;-77
2021/07/05 06:05:09;;;;;;;18.67;17.20;;;21.80;1.00;;;;;;5040946;28;20493;-77
2021/07/05 06:07:35;;;;;;;107.80;44.53;;;21.90;1.00;;;;;;5052071;28;20432;-77
2021/07/05 06:10:03;;;;;;;17.83;16.43;;;22.10;1.00;;;;;;5043055;28;20853;-76
2021/07/05 06:12:30;;;;;;;17.87;16.57;;;22.10;1.00;;;;;;5052260;28;20490;-76
2021/07/05 06:14:58;;;;;;;20.67;18.97;;;22.20;1.00;;;;;;5044831;28;20547;-75
2021/07/05 06:17:24;;;;;;;19.03;17.33;;;22.30;1.00;;;;;;5043158;28;20461;-76
2021/07/05 06:19:51;;;;;;;19.40;17.70;;;22.40;1.00;;;;;;5047597;28;20444;-76
2021/07/05 06:22:25;;;;;;;18.27;16.70;;;22.50;1.00;;;;;;5042964;28;20534;-76
2021/07/05 06:24:52;;;;;;;17.83;16.43;;;22.70;1.00;;;;;;5049117;28;20569;-75
2021/07/05 06:27:19;;;;;;;16.37;15.10;;;22.80;1.00;;;;;;5048189;28;20446;-77
2021/07/05 06:29:45;;;;;;;16.93;15.50;;;22.80;1.00;;;;;;5048717;28;20973;-76
2021/07/05 06:32:13;;;;;;;18.10;16.63;;;22.80;1.00;;;;;;5047379;28;20468;-76
2021/07/05 06:34:40;;;;;;;16.27;14.83;;;22.90;1.00;;;;;;5053265;28;21358;-77
2021/07/05 06:37:08;;;;;;;16.10;14.93;;;23.00;1.00;;;;;;5041485;28;20470;-77
2021/07/05 06:39:34;;;;;;;14.47;13.27;;;23.20;1.00;;;;;;5052469;28;20442;-77
2021/07/05 06:42:01;;;;;;;14.73;13.63;;;23.40;1.00;;;;;;5045100;28;20454;-76
2021/07/05 06:44:28;;;;;;;14.50;13.00;;;23.50;1.00;;;;;;5052177;28;20466;-76
2021/07/05 06:46:54;;;;;;;14.33;13.00;;;23.70;1.00;;;;;;5042864;28;20443;-75
2021/07/05 06:49:22;;;;;;;15.77;14.47;;;23.60;1.00;;;;;;5049389;28;20466;-76
2021/07/05 06:51:50;;;;;;;14.00;12.90;;;23.70;1.00;;;;;;5044484;28;20445;-77
2021/07/05 06:54:17;;;;;;;12.77;11.77;;;23.80;1.00;;;;;;5044621;28;20844;-76
2021/07/05 06:56:43;;;;;;;13.13;12.10;;;24.00;1.00;;;;;;5048988;28;21051;-77
2021/07/05 06:59:10;;;;;;;12.47;11.50;;;24.10;1.00;;;;;;5042801;28;20452;-76
2021/07/05 07:01:37;;;;;;;12.90;11.80;;;24.20;1.00;;;;;;5045300;28;20968;-76
2021/07/05 07:04:04;;;;;;;11.97;11.07;;;24.20;1.00;;;;;;5044612;28;20460;-77
2021/07/05 07:06:32;;;;;;;11.60;10.63;;;24.30;1.00;;;;;;5051584;28;20903;-76
2021/07/05 07:08:59;;;;;;;12.43;11.43;;;24.50;1.00;;;;;;5042856;28;21413;-76
2021/07/05 07:11:26;;;;;;;11.40;10.50;;;24.50;1.00;;;;;;5050439;28;20459;-76
2021/07/05 07:13:53;;;;;;;12.40;11.50;;;24.40;1.00;;;;;;5043444;28;20557;-76
2021/07/05 07:16:21;;;;;;;12.83;11.83;;;24.20;1.00;;;;;;5044634;28;20488;-76
2021/07/05 07:19:16;;;;;;;12.43;10.90;;;23.80;1.00;;;;;;5043900;28;20592;-76
2021/07/05 07:21:45;;;;;;;11.77;10.87;;;23.70;1.00;;;;;;5043116;28;20508;-76
2021/07/05 07:24:12;;;;;;;10.90;10.03;;;23.50;1.00;;;;;;5052939;28;20463;-77
2021/07/05 07:26:39;;;;;;;11.10;10.23;;;23.50;1.00;;;;;;5040850;28;20455;-77
2021/07/05 07:29:05;;;;;;;9.80;9.00;;;23.30;1.00;;;;;;5050125;28;20668;-76
2021/07/05 07:31:32;;;;;;;10.57;9.73;;;23.10;1.00;;;;;;5043812;28;20483;-77
2021/07/05 07:33:59;;;;;;;10.10;9.30;;;22.90;1.00;;;;;;5045508;28;20573;-76
2021/07/05 07:36:27;;;;;;;10.77;9.80;;;22.80;1.00;;;;;;5044047;28;20523;-76
2021/07/05 07:38:59;;;;;;;10.17;9.37;;;22.70;1.00;;;;;;5050513;28;20516;-76
2021/07/05 07:41:31;;;;;;;11.43;10.53;;;22.60;1.00;;;;;;5041465;28;20543;-76
2021/07/05 07:43:58;;;;;;;9.83;8.93;;;22.40;1.00;;;;;;5045914;28;20463;-76
2021/07/05 07:46:26;;;;;;;9.60;8.70;;;22.40;1.00;;;;;;5056862;28;21362;-76
2021/07/05 07:48:59;;;;;;;10.93;10.03;;;22.30;1.00;;;;;;5058447;28;20460;-75
2021/07/05 07:51:26;;;;;;;10.00;9.00;;;22.40;1.00;;;;;;5045309;28;20463;-77
2021/07/05 07:53:54;;;;;;;10.43;9.53;;;22.40;1.00;;;;;;5049090;28;20448;-76
2021/07/05 07:56:22;;;;;;;10.00;9.07;;;22.40;1.00;;;;;;5051778;28;20476;-77
2021/07/05 07:58:49;;;;;;;9.80;8.90;;;22.20;1.00;;;;;;5045027;28;20488;-76
2021/07/05 08:01:15;;;;;;;9.93;9.03;;;22.10;1.00;;;;;;5054005;28;20521;-76
2021/07/05 08:03:42;;;;;;;9.40;8.50;;;21.90;1.00;;;;;;5045723;28;20499;-76
2021/07/05 08:06:09;;;;;;;8.90;8.20;;;21.80;1.00;;;;;;5051962;28;20445;-76
2021/07/05 08:08:36;;;;;;;10.37;9.57;;;21.50;1.00;;;;;;5040784;28;20952;-77
2021/07/05 08:11:02;;;;;;;9.90;9.10;;;21.30;1.00;;;;;;5058032;28;20457;-77
2021/07/05 08:13:30;;;;;;;10.00;9.20;;;21.00;1.00;;;;;;5047315;28;20460;-77
2021/07/05 08:15:57;;;;;;;10.17;9.27;;;20.70;1.00;;;;;;5049863;28;21725;-76
2021/07/05 08:18:24;;;;;;;10.77;9.73;;;20.50;1.00;;;;;;5047760;28;20480;-76
2021/07/05 08:20:50;;;;;;;20.07;18.30;;;20.40;1.00;;;;;;5052454;28;20437;-76
2021/07/05 08:23:17;;;;;;;10.03;9.20;;;20.10;1.00;;;;;;5047945;28;20544;-76
2021/07/05 08:25:44;;;;;;;10.23;9.43;;;19.90;1.00;;;;;;5052232;28;20441;-75
2021/07/05 08:28:12;;;;;;;11.10;10.00;;;19.80;1.00;;;;;;5050959;28;20432;-77
2021/07/05 08:30:40;;;;;;;10.20;9.30;;;19.70;1.00;;;;;;5046637;28;20451;-76
2021/07/05 08:33:07;;;;;;;15.53;14.07;;;19.60;1.00;;;;;;5046877;28;20497;-77
2021/07/05 08:35:34;;;;;;;13.03;11.77;;;19.40;1.00;;;;;;5048581;28;20475;-77
2021/07/05 08:38:01;;;;;;;14.20;11.97;;;19.30;1.00;;;;;;5052497;28;20411;-75
2021/07/05 08:40:28;;;;;;;11.20;10.27;;;19.30;1.00;;;;;;5046036;28;20440;-76
2021/07/05 08:42:55;;;;;;;12.87;11.30;;;19.20;1.00;;;;;;5056358;28;20553;-77
2021/07/05 08:45:23;;;;;;;12.33;9.97;;;19.20;1.00;;;;;;5046157;28;21206;-76
2021/07/05 08:47:52;;;;;;;10.47;9.47;;;19.20;1.00;;;;;;5055697;28;20472;-76
2021/07/05 08:50:20;;;;;;;10.70;9.77;;;19.20;1.00;;;;;;5051441;28;20484;-78
2021/07/05 08:52:47;;;;;;;8.90;8.20;;;19.10;1.00;;;;;;5043379;28;20556;-76
2021/07/05 08:55:16;;;;;;;10.93;10.03;;;19.10;1.00;;;;;;5046307;28;20535;-76
2021/07/05 08:57:42;;;;;;;11.93;10.40;;;19.10;1.00;;;;;;5042330;28;20594;-77
2021/07/05 09:00:11;;;;;;;10.80;9.90;;;19.10;1.00;;;;;;5047358;28;21519;-75
2021/07/05 09:02:39;;;;;;;10.13;8.60;;;19.10;1.00;;;;;;5051095;28;20558;-77
2021/07/05 09:05:09;;;;;;;11.07;10.07;;;19.00;1.00;;;;;;5051283;28;20440;-77
2021/07/05 09:07:55;;;;;;;11.67;10.60;;;19.00;1.00;;;;;;5044764;28;20489;-77
2021/07/05 09:10:22;;;;;;;12.73;11.53;;;19.10;1.00;;;;;;5045824;28;20509;-76
2021/07/05 09:13:05;;;;;;;11.33;10.33;;;19.10;1.00;;;;;;5041048;28;20563;-76
2021/07/05 09:15:36;;;;;;;13.17;11.97;;;19.10;1.00;;;;;;5050444;28;20461;-76
2021/07/05 09:18:02;;;;;;;12.13;11.13;;;19.10;1.00;;;;;;5044949;28;20532;-76
2021/07/05 09:20:32;;;;;;;14.30;13.00;;;19.10;1.00;;;;;;5045368;28;20837;-76
2021/07/05 09:23:09;;;;;;;11.53;10.50;;;19.20;1.00;;;;;;5048292;28;20460;-76
2021/07/05 09:25:36;;;;;;;12.27;10.97;;;19.20;1.00;;;;;;5040509;28;20496;-76
2021/07/05 09:28:04;;;;;;;12.57;11.40;;;19.20;1.00;;;;;;5050899;28;20444;-76
2021/07/05 09:30:37;;;;;;;13.70;12.43;;;19.30;1.00;;;;;;5048152;28;20480;-76
2021/07/05 09:33:21;;;;;;;12.40;11.20;;;19.30;1.00;;;;;;5051829;28;20471;-76
2021/07/05 09:35:53;;;;;;;13.57;12.30;;;19.30;1.00;;;;;;5043727;28;20449;-75
2021/07/05 09:38:34;;;;;;;16.77;15.23;;;19.30;1.00;;;;;;5051752;28;20449;-76
2021/07/05 09:41:18;;;;;;;15.53;14.10;;;19.30;1.00;;;;;;5045002;28;20575;-77
2021/07/05 09:43:45;;;;;;;15.93;14.57;;;19.40;1.00;;;;;;5046964;28;20460;-76
2021/07/05 09:46:13;;;;;;;15.90;14.40;;;19.30;1.00;;;;;;5050708;28;20494;-76
2021/07/05 09:48:45;;;;;;;19.10;17.40;;;19.30;1.00;;;;;;5043402;28;20516;-75
2021/07/05 09:51:19;;;;;;;17.57;15.87;;;19.30;1.00;;;;;;5047026;28;20546;-76
2021/07/05 09:53:48;;;;;;;17.97;16.07;;;19.30;1.00;;;;;;5043996;28;20456;-75
2021/07/05 09:56:21;;;;;;;18.73;16.40;;;19.30;1.00;;;;;;5044036;28;21117;-76
2021/07/05 09:58:49;;;;;;;15.50;14.17;;;19.40;1.00;;;;;;5048480;28;21388;-75
2021/07/05 10:01:38;;;;;;;15.10;13.80;;;19.40;1.00;;;;;;5044713;28;21262;-75
2021/07/05 10:04:07;;;;;;;18.83;14.97;;;19.50;1.00;;;;;;5047464;28;20540;-76
2021/07/05 10:06:41;;;;;;;16.93;15.23;;;19.50;1.00;;;;;;5042878;28;20449;-76
2021/07/05 10:09:09;;;;;;;16.00;14.60;;;19.60;1.00;;;;;;5049314;28;20448;-76
2021/07/05 10:11:36;;;;;;;16.83;15.13;;;19.70;1.00;;;;;;5042533;28;21597;-76
2021/07/05 10:14:20;;;;;;;17.33;15.77;;;19.80;1.00;;;;;;5041171;28;20520;-76
2021/07/05 10:16:49;;;;;;;15.67;14.37;;;19.90;1.00;;;;;;5045418;28;20449;-75
2021/07/05 10:19:16;;;;;;;17.07;15.37;;;20.00;1.00;;;;;;5044527;28;20434;-75
2021/07/05 10:21:45;;;;;;;15.53;13.93;;;20.10;1.00;;;;;;5043757;28;20499;-76
2021/07/05 10:24:12;;;;;;;14.60;13.40;;;20.00;1.00;;;;;;5048500;28;20475;-77
2021/07/05 10:26:41;;;;;;;15.20;13.83;;;19.80;1.00;;;;;;5047525;28;21784;-75
2021/07/05 10:29:10;;;;;;;13.80;12.60;;;19.90;1.00;;;;;;5047347;28;20442;-76
2021/07/05 10:31:39;;;;;;;14.30;13.10;;;20.10;1.00;;;;;;5047195;28;21016;-75
2021/07/05 10:34:06;;;;;;;11.13;10.13;;;20.30;1.00;;;;;;5043881;28;20486;-76
2021/07/05 10:36:38;;;;;;;12.00;10.90;;;20.20;1.00;;;;;;5054456;28;20984;-76
2021/07/05 10:39:09;;;;;;;11.30;10.40;;;20.30;1.00;;;;;;5043013;28;20446;-75
2021/07/05 10:41:38;;;;;;;10.33;9.43;;;20.40;1.00;;;;;;5049163;28;20452;-76
2021/07/05 10:44:06;;;;;;;9.90;8.90;;;20.30;1.00;;;;;;5044453;28;20457;-75
2021/07/05 10:46:38;;;;;;;12.50;11.50;;;20.10;1.00;;;;;;5047618;28;20445;-76
2021/07/05 10:49:06;;;;;;;11.20;10.30;;;20.10;1.00;;;;;;5048510;28;20454;-76
2021/07/05 10:51:41;;;;;;;11.00;10.00;;;20.10;1.00;;;;;;5049908;28;20526;-77
2021/07/05 10:54:09;;;;;;;8.63;7.93;;;20.10;1.00;;;;;;5050126;28;20459;-76
2021/07/05 10:56:43;;;;;;;9.73;8.93;;;20.00;1.00;;;;;;5044006;28;20927;-76
2021/07/05 10:59:36;;;;;;;12.43;11.53;;;19.90;1.00;;;;;;5052240;28;20459;-75
2021/07/05 11:02:30;;;;;;;9.80;8.90;;;20.20;1.00;;;;;;5044164;28;20495;-75
2021/07/05 11:04:57;;;;;;;11.73;10.73;;;20.20;1.00;;;;;;5047469;28;20454;-75
2021/07/05 11:07:24;;;;;;;12.87;11.67;;;20.20;1.00;;;;;;5047488;28;21681;-76
2021/07/05 11:09:54;;;;;;;12.70;11.67;;;20.20;1.00;;;;;;5049395;28;20532;-75
2021/07/05 11:12:31;;;;;;;12.30;11.03;;;20.10;1.00;;;;;;5045881;28;21047;-76
2021/07/05 11:14:58;;;;;;;11.47;10.53;;;20.10;1.00;;;;;;5042550;28;20449;-77
2021/07/05 11:17:28;;;;;;;14.70;13.20;;;20.10;1.00;;;;;;5047635;28;20952;-77
2021/07/05 11:19:56;;;;;;;11.30;10.20;;;20.20;1.00;;;;;;5045514;28;20460;-76
2021/07/05 11:22:28;;;;;;;10.77;9.87;;;20.20;1.00;;;;;;5048125;28;20548;-76
2021/07/05 11:25:01;;;;;;;10.80;9.80;;;20.30;1.00;;;;;;5043854;28;20503;-77
2021/07/05 11:27:33;;;;;;;11.00;10.20;;;20.30;1.00;;;;;;5047647;28;20510;-76
2021/07/05 11:30:30;;;;;;;9.90;8.90;;;20.70;1.00;;;;;;5047005;28;20489;-77
2021/07/05 11:33:03;;;;;;;9.73;8.90;;;21.10;1.00;;;;;;5038034;28;21010;-76
2021/07/05 11:35:42;;;;;;;10.87;9.93;;;21.20;1.00;;;;;;5048188;28;20507;-76
2021/07/05 11:38:21;;;;;;;9.83;8.93;;;21.40;1.00;;;;;;5044329;28;20450;-77
2021/07/05 11:40:52;;;;;;;9.33;8.53;;;21.40;1.00;;;;;;5051050;28;20522;-76
2021/07/05 11:43:41;;;;;;;8.80;8.03;;;21.50;1.00;;;;;;5039998;28;20470;-75
2021/07/05 11:46:09;;;;;;;9.00;8.20;;;21.60;1.00;;;;;;5052209;28;21036;-76
2021/07/05 11:48:56;;;;;;;7.40;6.70;;;21.90;1.00;;;;;;5043513;28;20454;-76
2021/07/05 11:51:27;;;;;;;7.47;6.87;;;22.20;1.00;;;;;;5043318;28;20561;-74
2021/07/05 11:53:55;;;;;;;7.73;7.03;;;22.60;1.00;;;;;;5045953;28;20463;-74
2021/07/05 11:56:32;;;;;;;6.83;6.33;;;22.80;1.00;;;;;;5039941;28;20545;-76
2021/07/05 11:59:01;;;;;;;6.90;6.30;;;23.00;1.00;;;;;;5044816;28;20465;-77
2021/07/05 12:01:29;;;;;;;9.67;7.30;;;23.30;1.00;;;;;;5043059;28;21042;-74
2021/07/05 12:03:57;;;;;;;7.43;6.83;;;24.20;1.00;;;;;;5048614;28;20526;-77
2021/07/05 12:06:25;;;;;;;8.00;7.20;;;25.50;1.00;;;;;;5042660;28;20466;-76
2021/07/05 12:08:54;;;;;;;8.20;7.60;;;26.10;1.00;;;;;;5052151;28;20430;-75
2021/07/05 12:11:32;;;;;;;7.53;6.93;;;26.30;1.00;;;;;;5057864;28;20451;-77
2021/07/05 12:14:12;;;;;;;7.43;6.83;;;26.10;1.00;;;;;;5050076;28;20464;-76
2021/07/05 12:16:41;;;;;;;8.03;7.37;;;25.90;1.00;;;;;;5041314;28;20543;-77
2021/07/05 12:19:09;;;;;;;7.63;6.93;;;26.10;1.00;;;;;;5046642;28;20409;-77
2021/07/05 12:21:39;;;;;;;8.07;7.40;;;27.00;1.00;;;;;;5053252;28;20443;-77
2021/07/05 12:24:13;;;;;;;8.20;7.57;;;26.90;1.00;;;;;;5042586;28;20483;-77
2021/07/05 12:26:52;;;;;;;8.03;7.33;;;26.80;1.00;;;;;;5051409;28;20462;-77
2021/07/05 12:29:23;;;;;;;7.60;6.90;;;26.30;1.00;;;;;;5048134;28;20448;-77
2021/07/05 12:31:56;;;;;;;7.50;6.90;;;25.80;1.00;;;;;;5052343;28;20489;-76
2021/07/05 12:34:54;;;;;;;7.27;6.67;;;25.80;1.00;;;;;;5061100;28;20465;-78
2021/07/05 12:37:24;;;;;;;5.10;4.70;;;27.60;1.00;;;;;;5044868;28;20493;-76
2021/07/05 12:39:54;;;;;;;7.03;6.43;;;30.00;1.00;;;;;;5057978;28;20522;-76
2021/07/05 12:42:26;;;;;;;6.00;5.60;;;31.50;1.00;;;;;;5050736;28;20451;-76
2021/07/05 12:44:55;;;;;;;5.40;5.00;;;32.60;1.00;;;;;;5050610;28;20455;-77
2021/07/05 12:47:23;;;;;;;5.77;5.27;;;32.90;1.00;;;;;;5046793;28;20528;-77
2021/07/05 12:49:51;;;;;;;6.03;5.53;;;32.70;1.00;;;;;;5053514;28;20575;-77